sensor_id;sensor_type;location;lat;lon;timestamp;pressure;altitude;pressure_sealevel;temperature;humidity
75699;BME280;64313;51.018;13.742;2023-03-21T00:00:22;99789.94;;;9.94;79.49
75699;BME280;64313;51.018;13.742;2023-03-21T00:02:47;99787.09;;;9.96;79.36
75699;BME280;64313;51.018;13.742;2023-03-21T00:05:13;99788.94;;;9.95;79.60
75699;BME280;64313;51.018;13.742;2023-03-21T00:07:38;99794.44;;;9.94;79.17
75699;BME280;64313;51.018;13.742;2023-03-21T00:10:04;99797.31;;;9.92;79.15
75699;BME280;64313;51.018;13.742;2023-03-21T00:12:30;99794.63;;;9.92;78.88
75699;BME280;64313;51.018;13.742;2023-03-21T00:14:58;99789.28;;;9.92;79.27
75699;BME280;64313;51.018;13.742;2023-03-21T00:17:29;99795.66;;;9.91;78.94
75699;BME280;64313;51.018;13.742;2023-03-21T00:19:57;99791.97;;;9.92;78.85
75699;BME280;64313;51.018;13.742;2023-03-21T00:22:24;99797.53;;;9.91;79.25
75699;BME280;64313;51.018;13.742;2023-03-21T00:24:50;99805.31;;;9.92;78.75
75699;BME280;64313;51.018;13.742;2023-03-21T00:27:16;99804.25;;;9.87;79.50
75699;BME280;64313;51.018;13.742;2023-03-21T00:29:43;99798.28;;;9.85;79.30
75699;BME280;64313;51.018;13.742;2023-03-21T00:32:09;99795.59;;;9.85;78.80
75699;BME280;64313;51.018;13.742;2023-03-21T00:34:34;99796.44;;;9.85;79.28
75699;BME280;64313;51.018;13.742;2023-03-21T00:36:59;99804.63;;;9.84;79.14
75699;BME280;64313;51.018;13.742;2023-03-21T00:39:25;99804.63;;;9.84;78.86
75699;BME280;64313;51.018;13.742;2023-03-21T00:41:51;99803.81;;;9.83;79.41
75699;BME280;64313;51.018;13.742;2023-03-21T00:44:16;99809.34;;;9.82;79.49
75699;BME280;64313;51.018;13.742;2023-03-21T00:46:41;99802.16;;;9.82;79.09
75699;BME280;64313;51.018;13.742;2023-03-21T00:49:07;99799.47;;;9.82;79.64
75699;BME280;64313;51.018;13.742;2023-03-21T00:51:32;99798.84;;;9.80;79.81
75699;BME280;64313;51.018;13.742;2023-03-21T00:53:58;99798.84;;;9.80;80.17
75699;BME280;64313;51.018;13.742;2023-03-21T00:56:26;99796.16;;;9.80;79.42
75699;BME280;64313;51.018;13.742;2023-03-21T00:58:51;99791.47;;;9.82;79.94
75699;BME280;64313;51.018;13.742;2023-03-21T01:01:17;99791.88;;;9.79;80.69
75699;BME280;64313;51.018;13.742;2023-03-21T01:03:42;99800.06;;;9.78;79.86
75699;BME280;64313;51.018;13.742;2023-03-21T01:06:12;99797.59;;;9.76;80.23
75699;BME280;64313;51.018;13.742;2023-03-21T01:08:40;99797.59;;;9.76;80.78
75699;BME280;64313;51.018;13.742;2023-03-21T01:11:11;99799.63;;;9.74;79.99
75699;BME280;64313;51.018;13.742;2023-03-21T01:13:37;99803.50;;;9.71;80.24
75699;BME280;64313;51.018;13.742;2023-03-21T01:16:04;99798.56;;;9.68;80.27
75699;BME280;64313;51.018;13.742;2023-03-21T01:18:31;99804.63;;;9.62;80.44
75699;BME280;64313;51.018;13.742;2023-03-21T01:20:58;99805.91;;;9.66;79.90
75699;BME280;64313;51.018;13.742;2023-03-21T01:23:26;99796.63;;;9.62;80.26
75699;BME280;64313;51.018;13.742;2023-03-21T01:25:52;99809.72;;;9.57;80.33
75699;BME280;64313;51.018;13.742;2023-03-21T01:28:18;99802.91;;;9.54;80.60
75699;BME280;64313;51.018;13.742;2023-03-21T01:30:48;99809.94;;;9.56;80.15
75699;BME280;64313;51.018;13.742;2023-03-21T01:33:14;99804.78;;;9.54;80.48
75699;BME280;64313;51.018;13.742;2023-03-21T01:35:39;99804.97;;;9.52;80.50
75699;BME280;64313;51.018;13.742;2023-03-21T01:38:05;99805.16;;;9.51;80.77
75699;BME280;64313;51.018;13.742;2023-03-21T01:40:31;99806.19;;;9.50;80.48
75699;BME280;64313;51.018;13.742;2023-03-21T01:43:32;99806.19;;;9.50;80.67
75699;BME280;64313;51.018;13.742;2023-03-21T01:49:19;99807.00;;;9.50;80.42
75699;BME280;64313;51.018;13.742;2023-03-21T01:51:58;99809.66;;;9.50;80.95
75699;BME280;64313;51.018;13.742;2023-03-21T01:54:28;99810.50;;;9.51;80.76
75699;BME280;64313;51.018;13.742;2023-03-21T01:56:58;99798.63;;;9.53;80.01
75699;BME280;64313;51.018;13.742;2023-03-21T02:02:27;99799.00;;;9.50;80.73
75699;BME280;64313;51.018;13.742;2023-03-21T02:05:04;99793.66;;;9.50;80.73
75699;BME280;64313;51.018;13.742;2023-03-21T02:07:32;99793.84;;;9.49;80.72
75699;BME280;64313;51.018;13.742;2023-03-21T02:10:10;99780.50;;;9.49;80.68
75699;BME280;64313;51.018;13.742;2023-03-21T02:12:39;99786.88;;;9.48;81.00
75699;BME280;64313;51.018;13.742;2023-03-21T02:15:06;99778.88;;;9.48;80.75
75699;BME280;64313;51.018;13.742;2023-03-21T02:18:01;99781.53;;;9.48;80.77
75699;BME280;64313;51.018;13.742;2023-03-21T02:21:00;99786.88;;;9.48;80.13
75699;BME280;64313;51.018;13.742;2023-03-21T02:24:10;99791.56;;;9.46;79.75
75699;BME280;64313;51.018;13.742;2023-03-21T02:26:58;99778.59;;;9.43;79.31
75699;BME280;64313;51.018;13.742;2023-03-21T02:29:43;99783.47;;;9.39;78.71
75699;BME280;64313;51.018;13.742;2023-03-21T02:35:20;99783.59;;;9.31;78.28
75699;BME280;64313;51.018;13.742;2023-03-21T02:38:06;99779.47;;;9.28;78.08
75699;BME280;64313;51.018;13.742;2023-03-21T02:43:48;99774.91;;;9.22;77.20
75699;BME280;64313;51.018;13.742;2023-03-21T02:46:23;99775.91;;;9.21;76.41
75699;BME280;64313;51.018;13.742;2023-03-21T02:48:58;99777.94;;;9.19;76.71
75699;BME280;64313;51.018;13.742;2023-03-21T02:51:26;99784.28;;;9.18;77.13
75699;BME280;64313;51.018;13.742;2023-03-21T02:53:59;99784.69;;;9.15;76.32
75699;BME280;64313;51.018;13.742;2023-03-21T02:56:27;99792.03;;;9.13;76.00
75699;BME280;64313;51.018;13.742;2023-03-21T02:58:55;99784.84;;;9.14;75.94
75699;BME280;64313;51.018;13.742;2023-03-21T03:01:21;99788.72;;;9.11;75.56
75699;BME280;64313;51.018;13.742;2023-03-21T03:03:51;99785.63;;;9.07;75.93
75699;BME280;64313;51.018;13.742;2023-03-21T03:06:29;99783.13;;;9.06;75.78
75699;BME280;64313;51.018;13.742;2023-03-21T03:09:16;99786.63;;;9.06;75.94
75699;BME280;64313;51.018;13.742;2023-03-21T03:11:52;99785.16;;;9.04;75.04
75699;BME280;64313;51.018;13.742;2023-03-21T03:14:37;99782.22;;;8.99;75.37
75699;BME280;64313;51.018;13.742;2023-03-21T03:17:31;99778.09;;;8.96;75.72
75699;BME280;64313;51.018;13.742;2023-03-21T03:20:20;99783.63;;;8.95;75.75
75699;BME280;64313;51.018;13.742;2023-03-21T03:22:53;99772.50;;;8.91;76.14
75699;BME280;64313;51.018;13.742;2023-03-21T03:28:07;99779.84;;;8.89;76.22
75699;BME280;64313;51.018;13.742;2023-03-21T03:30:35;99776.34;;;8.88;76.31
75699;BME280;64313;51.018;13.742;2023-03-21T03:33:03;99772.22;;;8.86;75.82
75699;BME280;64313;51.018;13.742;2023-03-21T03:35:31;99774.06;;;8.85;76.00
75699;BME280;64313;51.018;13.742;2023-03-21T03:38:00;99780.59;;;8.83;76.32
75699;BME280;64313;51.018;13.742;2023-03-21T03:40:29;99777.28;;;8.81;76.33
75699;BME280;64313;51.018;13.742;2023-03-21T03:43:14;99787.13;;;8.80;76.37
75699;BME280;64313;51.018;13.742;2023-03-21T03:45:50;99783.19;;;8.76;76.48
75699;BME280;64313;51.018;13.742;2023-03-21T03:50:51;99791.72;;;8.72;76.75
75699;BME280;64313;51.018;13.742;2023-03-21T03:53:29;99794.59;;;8.70;77.17
75699;BME280;64313;51.018;13.742;2023-03-21T03:55:59;99790.25;;;8.69;77.42
75699;BME280;64313;51.018;13.742;2023-03-21T03:58:26;99784.47;;;8.65;77.37
75699;BME280;64313;51.018;13.742;2023-03-21T04:00:53;99792.31;;;8.67;77.24
75699;BME280;64313;51.018;13.742;2023-03-21T04:03:19;99779.97;;;8.66;77.17
75699;BME280;64313;51.018;13.742;2023-03-21T04:05:45;99789.63;;;8.67;77.01
75699;BME280;64313;51.018;13.742;2023-03-21T04:08:13;99782.00;;;8.64;77.27
75699;BME280;64313;51.018;13.742;2023-03-21T04:10:41;99785.69;;;8.63;77.40
75699;BME280;64313;51.018;13.742;2023-03-21T04:13:08;99791.19;;;8.61;77.84
75699;BME280;64313;51.018;13.742;2023-03-21T04:15:54;99790.34;;;8.61;77.54
75699;BME280;64313;51.018;13.742;2023-03-21T04:18:20;99781.53;;;8.60;77.28
75699;BME280;64313;51.018;13.742;2023-03-21T04:20:48;99793.84;;;8.61;77.31
75699;BME280;64313;51.018;13.742;2023-03-21T04:23:16;99800.84;;;8.62;77.43
75699;BME280;64313;51.018;13.742;2023-03-21T04:25:44;99792.03;;;8.62;77.35
75699;BME280;64313;51.018;13.742;2023-03-21T04:28:10;99791.19;;;8.61;77.44
75699;BME280;64313;51.018;13.742;2023-03-21T04:30:40;99786.88;;;8.60;77.28
75699;BME280;64313;51.018;13.742;2023-03-21T04:33:10;99784.38;;;8.59;77.35
75699;BME280;64313;51.018;13.742;2023-03-21T04:35:37;99792.38;;;8.59;77.14
75699;BME280;64313;51.018;13.742;2023-03-21T04:38:04;99789.91;;;8.57;77.40
75699;BME280;64313;51.018;13.742;2023-03-21T04:40:30;99787.25;;;8.57;77.16
75699;BME280;64313;51.018;13.742;2023-03-21T04:42:55;99794.41;;;8.57;77.40
75699;BME280;64313;51.018;13.742;2023-03-21T04:45:21;99787.41;;;8.56;77.02
75699;BME280;64313;51.018;13.742;2023-03-21T04:47:46;99791.75;;;8.57;77.27
75699;BME280;64313;51.018;13.742;2023-03-21T04:50:11;99781.44;;;8.54;77.35
75699;BME280;64313;51.018;13.742;2023-03-21T04:52:38;99785.94;;;8.53;77.67
75699;BME280;64313;51.018;13.742;2023-03-21T04:55:04;99782.47;;;8.53;77.76
75699;BME280;64313;51.018;13.742;2023-03-21T04:57:29;99783.50;;;8.52;78.06
75699;BME280;64313;51.018;13.742;2023-03-21T04:59:56;99789.63;;;8.52;78.16
75699;BME280;64313;51.018;13.742;2023-03-21T05:02:22;99786.31;;;8.50;77.25
75699;BME280;64313;51.018;13.742;2023-03-21T05:04:47;99783.00;;;8.48;78.07
75699;BME280;64313;51.018;13.742;2023-03-21T05:07:12;99787.16;;;8.51;77.60
75699;BME280;64313;51.018;13.742;2023-03-21T05:09:38;99789.00;;;8.50;77.55
75699;BME280;64313;51.018;13.742;2023-03-21T05:12:03;99787.31;;;8.49;76.82
75699;BME280;64313;51.018;13.742;2023-03-21T05:14:30;99787.53;;;8.48;76.94
75699;BME280;64313;51.018;13.742;2023-03-21T05:16:57;99789.81;;;8.51;76.58
75699;BME280;64313;51.018;13.742;2023-03-21T05:19:26;99788.50;;;8.47;76.58
75699;BME280;64313;51.018;13.742;2023-03-21T05:22:07;99793.66;;;8.48;76.62
75699;BME280;64313;51.018;13.742;2023-03-21T05:24:34;99792.03;;;8.47;76.42
75699;BME280;64313;51.018;13.742;2023-03-21T05:27:02;99797.53;;;8.45;76.28
75699;BME280;64313;51.018;13.742;2023-03-21T05:29:31;99793.22;;;8.44;76.56
75699;BME280;64313;51.018;13.742;2023-03-21T05:32:00;99797.53;;;8.45;76.45
75699;BME280;64313;51.018;13.742;2023-03-21T05:34:26;99800.03;;;8.47;76.47
75699;BME280;64313;51.018;13.742;2023-03-21T05:36:53;99794.03;;;8.45;76.43
75699;BME280;64313;51.018;13.742;2023-03-21T05:39:20;99798.19;;;8.48;76.56
75699;BME280;64313;51.018;13.742;2023-03-21T05:41:57;99801.84;;;8.47;76.63
75699;BME280;64313;51.018;13.742;2023-03-21T05:44:23;99798.91;;;8.41;76.82
75699;BME280;64313;51.018;13.742;2023-03-21T05:46:49;99801.38;;;8.43;76.59
75699;BME280;64313;51.018;13.742;2023-03-21T05:49:16;99800.03;;;8.47;76.64
75699;BME280;64313;51.018;13.742;2023-03-21T05:51:42;99798.34;;;8.46;76.43
75699;BME280;64313;51.018;13.742;2023-03-21T05:54:09;99796.34;;;8.48;76.32
75699;BME280;64313;51.018;13.742;2023-03-21T05:56:34;99794.03;;;8.45;76.34
75699;BME280;64313;51.018;13.742;2023-03-21T05:59:05;99798.56;;;8.44;76.48
75699;BME280;64313;51.018;13.742;2023-03-21T06:01:36;99788.72;;;8.45;76.42
75699;BME280;64313;51.018;13.742;2023-03-21T06:04:10;99795.88;;;8.44;76.69
75699;BME280;64313;51.018;13.742;2023-03-21T06:06:35;99800.72;;;8.41;76.62
75699;BME280;64313;51.018;13.742;2023-03-21T06:09:00;99802.22;;;8.43;76.34
75699;BME280;64313;51.018;13.742;2023-03-21T06:11:30;99807.72;;;8.42;76.93
75699;BME280;64313;51.018;13.742;2023-03-21T06:14:14;99805.06;;;8.42;77.02
75699;BME280;64313;51.018;13.742;2023-03-21T06:16:41;99804.06;;;8.43;76.83
75699;BME280;64313;51.018;13.742;2023-03-21T06:19:07;99803.88;;;8.44;76.93
75699;BME280;64313;51.018;13.742;2023-03-21T06:21:41;99809.22;;;8.44;77.18
75699;BME280;64313;51.018;13.742;2023-03-21T06:24:07;99805.53;;;8.45;77.06
75699;BME280;64313;51.018;13.742;2023-03-21T06:26:33;99807.81;;;8.49;76.84
75699;BME280;64313;51.018;13.742;2023-03-21T06:28:59;99803.50;;;8.48;76.88
75699;BME280;64313;51.018;13.742;2023-03-21T06:31:25;99811.13;;;8.51;76.90
75699;BME280;64313;51.018;13.742;2023-03-21T06:33:56;99808.47;;;8.51;76.89
75699;BME280;64313;51.018;13.742;2023-03-21T06:36:22;99807.25;;;8.53;76.58
75699;BME280;64313;51.018;13.742;2023-03-21T06:38:47;99811.94;;;8.51;76.62
75699;BME280;64313;51.018;13.742;2023-03-21T06:41:14;99812.78;;;8.52;76.57
75699;BME280;64313;51.018;13.742;2023-03-21T06:43:47;99821.78;;;8.51;76.92
75699;BME280;64313;51.018;13.742;2023-03-21T06:46:13;99818.13;;;8.52;76.85
75699;BME280;64313;51.018;13.742;2023-03-21T06:48:38;99822.25;;;8.54;76.56
75699;BME280;64313;51.018;13.742;2023-03-21T06:51:13;99823.78;;;8.49;76.43
75699;BME280;64313;51.018;13.742;2023-03-21T06:53:46;99828.94;;;8.50;76.52
75699;BME280;64313;51.018;13.742;2023-03-21T06:56:18;99824.28;;;8.52;76.27
75699;BME280;64313;51.018;13.742;2023-03-21T06:58:44;99822.81;;;8.50;76.20
75699;BME280;64313;51.018;13.742;2023-03-21T07:01:21;99829.78;;;8.51;76.68
75699;BME280;64313;51.018;13.742;2023-03-21T07:03:55;99821.94;;;8.49;76.24
75699;BME280;64313;51.018;13.742;2023-03-21T07:06:23;99826.47;;;8.49;76.25
75699;BME280;64313;51.018;13.742;2023-03-21T07:08:52;99830.59;;;8.51;76.33
75699;BME280;64313;51.018;13.742;2023-03-21T07:11:18;99832.44;;;8.51;76.32
75699;BME280;64313;51.018;13.742;2023-03-21T07:13:45;99832.25;;;8.52;76.55
75699;BME280;64313;51.018;13.742;2023-03-21T07:16:14;99824.91;;;8.54;76.76
75699;BME280;64313;51.018;13.742;2023-03-21T07:18:40;99838.41;;;8.53;76.38
75699;BME280;64313;51.018;13.742;2023-03-21T07:21:06;99825.47;;;8.50;76.93
75699;BME280;64313;51.018;13.742;2023-03-21T07:23:32;99832.06;;;8.54;76.67
75699;BME280;64313;51.018;13.742;2023-03-21T07:25:57;99828.69;;;8.60;76.64
75699;BME280;64313;51.018;13.742;2023-03-21T07:28:22;99828.31;;;8.63;77.02
75699;BME280;64313;51.018;13.742;2023-03-21T07:30:57;99830.44;;;8.68;76.74
75699;BME280;64313;51.018;13.742;2023-03-21T07:33:24;99825.53;;;8.71;76.33
75699;BME280;64313;51.018;13.742;2023-03-21T07:35:53;99833.38;;;8.73;76.94
75699;BME280;64313;51.018;13.742;2023-03-21T07:38:20;99832.34;;;8.74;76.65
75699;BME280;64313;51.018;13.742;2023-03-21T07:40:47;99833.81;;;8.76;76.46
75699;BME280;64313;51.018;13.742;2023-03-21T07:43:14;99836.31;;;8.78;76.59
75699;BME280;64313;51.018;13.742;2023-03-21T07:45:42;99839.78;;;8.78;76.30
75699;BME280;64313;51.018;13.742;2023-03-21T07:48:09;99831.41;;;8.81;76.46
75699;BME280;64313;51.018;13.742;2023-03-21T07:50:35;99837.56;;;8.82;76.00
75699;BME280;64313;51.018;13.742;2023-03-21T07:53:00;99833.09;;;8.82;76.30
75699;BME280;64313;51.018;13.742;2023-03-21T07:55:26;99836.75;;;8.81;76.33
75699;BME280;64313;51.018;13.742;2023-03-21T07:57:51;99836.75;;;8.81;76.22
75699;BME280;64313;51.018;13.742;2023-03-21T08:00:17;99839.25;;;8.83;76.31
75699;BME280;64313;51.018;13.742;2023-03-21T08:02:54;99833.53;;;8.86;76.44
75699;BME280;64313;51.018;13.742;2023-03-21T08:05:22;99828.69;;;8.90;76.55
75699;BME280;64313;51.018;13.742;2023-03-21T08:07:48;99829.28;;;8.92;75.98
75699;BME280;64313;51.018;13.742;2023-03-21T08:10:15;99827.91;;;8.96;75.97
75699;BME280;64313;51.018;13.742;2023-03-21T08:12:41;99827.38;;;9.00;76.15
75699;BME280;64313;51.018;13.742;2023-03-21T08:15:07;99827.16;;;9.02;76.14
75699;BME280;64313;51.018;13.742;2023-03-21T08:17:32;99832.59;;;9.08;75.97
75699;BME280;64313;51.018;13.742;2023-03-21T08:20:00;99821.53;;;9.12;75.53
75699;BME280;64313;51.018;13.742;2023-03-21T08:22:25;99832.69;;;9.15;75.68
75699;BME280;64313;51.018;13.742;2023-03-21T08:24:51;99833.13;;;9.19;76.03
75699;BME280;64313;51.018;13.742;2023-03-21T08:27:16;99831.75;;;9.23;75.78
75699;BME280;64313;51.018;13.742;2023-03-21T08:29:41;99826.66;;;9.28;76.06
75699;BME280;64313;51.018;13.742;2023-03-21T08:32:07;99829.59;;;9.33;75.07
75699;BME280;64313;51.018;13.742;2023-03-21T08:34:32;99825.53;;;9.37;75.16
75699;BME280;64313;51.018;13.742;2023-03-21T08:36:59;99829.47;;;9.41;75.52
75699;BME280;64313;51.018;13.742;2023-03-21T08:39:25;99827.25;;;9.45;75.36
75699;BME280;64313;51.018;13.742;2023-03-21T08:41:51;99824.00;;;9.49;75.02
75699;BME280;64313;51.018;13.742;2023-03-21T08:44:18;99826.13;;;9.54;74.81
75699;BME280;64313;51.018;13.742;2023-03-21T08:46:44;99824.91;;;9.57;74.50
75699;BME280;64313;51.018;13.742;2023-03-21T08:49:09;99820.22;;;9.59;74.71
75699;BME280;64313;51.018;13.742;2023-03-21T08:51:35;99821.69;;;9.61;74.64
75699;BME280;64313;51.018;13.742;2023-03-21T08:54:02;99820.47;;;9.64;74.84
75699;BME280;64313;51.018;13.742;2023-03-21T08:56:27;99820.91;;;9.67;74.71
75699;BME280;64313;51.018;13.742;2023-03-21T08:58:52;99806.56;;;9.68;74.35
75699;BME280;64313;51.018;13.742;2023-03-21T09:01:18;99807.63;;;9.74;74.62
75699;BME280;64313;51.018;13.742;2023-03-21T09:03:43;99815.06;;;9.79;74.57
75699;BME280;64313;51.018;13.742;2023-03-21T09:06:09;99810.38;;;9.81;74.24
75699;BME280;64313;51.018;13.742;2023-03-21T09:08:40;99814.09;;;9.86;74.00
75699;BME280;64313;51.018;13.742;2023-03-21T09:11:07;99816.00;;;9.92;74.10
75699;BME280;64313;51.018;13.742;2023-03-21T09:13:33;99810.72;;;9.99;74.12
75699;BME280;64313;51.018;13.742;2023-03-21T09:15:59;99814.28;;;10.06;73.67
75699;BME280;64313;51.018;13.742;2023-03-21T09:18:26;99811.84;;;10.11;73.22
75699;BME280;64313;51.018;13.742;2023-03-21T09:21:11;99813.13;;;10.15;72.90
75699;BME280;64313;51.018;13.742;2023-03-21T09:23:39;99810.88;;;10.19;73.50
75699;BME280;64313;51.018;13.742;2023-03-21T09:26:06;99810.94;;;10.26;73.70
75699;BME280;64313;51.018;13.742;2023-03-21T09:28:34;99804.66;;;10.33;73.69
75699;BME280;64313;51.018;13.742;2023-03-21T09:30:59;99808.38;;;10.39;72.92
75699;BME280;64313;51.018;13.742;2023-03-21T09:33:27;99805.72;;;10.46;72.53
75699;BME280;64313;51.018;13.742;2023-03-21T09:35:54;99805.34;;;10.49;72.82
75699;BME280;64313;51.018;13.742;2023-03-21T09:38:19;99808.44;;;10.52;72.50
75699;BME280;64313;51.018;13.742;2023-03-21T09:46:58;99803.16;;;10.59;72.61
75699;BME280;64313;51.018;13.742;2023-03-21T09:49:39;99814.25;;;10.63;72.75
75699;BME280;64313;51.018;13.742;2023-03-21T09:52:29;99808.91;;;10.63;72.23
75699;BME280;64313;51.018;13.742;2023-03-21T09:54:57;99812.22;;;10.65;72.28
75699;BME280;64313;51.018;13.742;2023-03-21T09:57:30;99804.22;;;10.65;72.15
75699;BME280;64313;51.018;13.742;2023-03-21T10:00:02;99804.41;;;10.63;72.41
75699;BME280;64313;51.018;13.742;2023-03-21T10:02:43;99800.91;;;10.63;72.10
75699;BME280;64313;51.018;13.742;2023-03-21T10:05:20;99798.22;;;10.63;72.00
75699;BME280;64313;51.018;13.742;2023-03-21T10:08:11;99783.84;;;10.64;72.38
75699;BME280;64313;51.018;13.742;2023-03-21T10:13:41;99778.94;;;10.67;71.79
75699;BME280;64313;51.018;13.742;2023-03-21T10:16:16;99782.66;;;10.73;72.05
75699;BME280;64313;51.018;13.742;2023-03-21T10:18:44;99777.75;;;10.76;71.94
75699;BME280;64313;51.018;13.742;2023-03-21T10:21:17;99777.16;;;10.81;71.63
75699;BME280;64313;51.018;13.742;2023-03-21T10:23:44;99778.38;;;10.85;70.96
75699;BME280;64313;51.018;13.742;2023-03-21T10:26:10;99779.66;;;10.89;71.48
75699;BME280;64313;51.018;13.742;2023-03-21T10:28:37;99769.38;;;10.93;72.08
75699;BME280;64313;51.018;13.742;2023-03-21T10:31:06;99760.13;;;10.95;71.78
75699;BME280;64313;51.018;13.742;2023-03-21T10:33:34;99764.06;;;10.99;71.39
75699;BME280;64313;51.018;13.742;2023-03-21T10:36:04;99760.97;;;11.02;71.24
75699;BME280;64313;51.018;13.742;2023-03-21T10:38:30;99763.22;;;11.05;71.16
75699;BME280;64313;51.018;13.742;2023-03-21T10:40:56;99762.00;;;11.08;71.27
75699;BME280;64313;51.018;13.742;2023-03-21T10:45:50;99759.56;;;11.13;71.14
75699;BME280;64313;51.018;13.742;2023-03-21T10:48:16;99759.19;;;11.16;70.70
75699;BME280;64313;51.018;13.742;2023-03-21T10:50:41;99762.25;;;11.20;70.89
75699;BME280;64313;51.018;13.742;2023-03-21T10:53:18;99755.25;;;11.25;70.40
75699;BME280;64313;51.018;13.742;2023-03-21T10:55:47;99760.00;;;11.30;70.60
75699;BME280;64313;51.018;13.742;2023-03-21T10:58:18;99754.06;;;11.35;69.98
75699;BME280;64313;51.018;13.742;2023-03-21T11:00:53;99754.28;;;11.40;69.77
75699;BME280;64313;51.018;13.742;2023-03-21T11:03:35;99745.81;;;11.43;70.41
75699;BME280;64313;51.018;13.742;2023-03-21T11:06:11;99749.75;;;11.47;69.81
75699;BME280;64313;51.018;13.742;2023-03-21T11:08:40;99748.53;;;11.50;69.61
75699;BME280;64313;51.018;13.742;2023-03-21T11:11:09;99743.56;;;11.53;69.61
75699;BME280;64313;51.018;13.742;2023-03-21T11:13:42;99746.69;;;11.57;69.21
75699;BME280;64313;51.018;13.742;2023-03-21T11:18:41;99741.13;;;11.65;69.30
75699;BME280;64313;51.018;13.742;2023-03-21T11:21:13;99742.56;;;11.67;68.75
75699;BME280;64313;51.018;13.742;2023-03-21T11:23:42;99734.31;;;11.69;69.08
75699;BME280;64313;51.018;13.742;2023-03-21T11:26:16;99732.88;;;11.73;69.42
75699;BME280;64313;51.018;13.742;2023-03-21T11:28:44;99734.13;;;11.77;69.08
75699;BME280;64313;51.018;13.742;2023-03-21T11:31:10;99734.31;;;11.82;69.88
75699;BME280;64313;51.018;13.742;2023-03-21T11:33:39;99729.34;;;11.86;69.69
75699;BME280;64313;51.018;13.742;2023-03-21T11:36:24;99727.16;;;11.89;70.00
75699;BME280;64313;51.018;13.742;2023-03-21T11:39:12;99723.81;;;11.94;69.04
75699;BME280;64313;51.018;13.742;2023-03-21T11:41:40;99717.22;;;11.97;68.90
75699;BME280;64313;51.018;13.742;2023-03-21T11:44:25;99716.41;;;12.03;69.27
75699;BME280;64313;51.018;13.742;2023-03-21T11:46:51;99716.16;;;12.04;69.49
75699;BME280;64313;51.018;13.742;2023-03-21T11:49:16;99712.47;;;12.05;68.74
75699;BME280;64313;51.018;13.742;2023-03-21T11:52:00;99701.53;;;12.07;67.76
75699;BME280;64313;51.018;13.742;2023-03-21T11:54:37;99698.03;;;12.13;68.40
75699;BME280;64313;51.018;13.742;2023-03-21T11:57:15;99693.06;;;12.17;68.40
75699;BME280;64313;51.018;13.742;2023-03-21T12:02:57;99691.44;;;12.22;68.87
75699;BME280;64313;51.018;13.742;2023-03-21T12:05:34;99684.81;;;12.25;66.93
75699;BME280;64313;51.018;13.742;2023-03-21T12:10:42;99683.97;;;12.31;68.33
75699;BME280;64313;51.018;13.742;2023-03-21T12:13:32;99686.03;;;12.36;67.18
75699;BME280;64313;51.018;13.742;2023-03-21T12:16:22;99674.03;;;12.38;67.71
75699;BME280;64313;51.018;13.742;2023-03-21T12:19:12;99667.44;;;12.41;67.93
75699;BME280;64313;51.018;13.742;2023-03-21T12:24:30;99653.78;;;12.49;67.71
75699;BME280;64313;51.018;13.742;2023-03-21T12:27:15;99656.66;;;12.54;67.28
75699;BME280;64313;51.018;13.742;2023-03-21T12:29:54;99649.03;;;12.58;67.07
75699;BME280;64313;51.018;13.742;2023-03-21T12:33:07;99643.00;;;12.62;67.60
75699;BME280;64313;51.018;13.742;2023-03-21T12:41:33;99651.63;;;12.71;67.82
75699;BME280;64313;51.018;13.742;2023-03-21T12:44:16;99640.47;;;12.74;67.63
75699;BME280;64313;51.018;13.742;2023-03-21T12:46:56;99639.22;;;12.76;66.72
75699;BME280;64313;51.018;13.742;2023-03-21T12:49:25;99643.56;;;12.77;66.09
75699;BME280;64313;51.018;13.742;2023-03-21T12:51:57;99636.94;;;12.80;67.56
75699;BME280;64313;51.018;13.742;2023-03-21T12:54:35;99625.75;;;12.83;66.38
75699;BME280;64313;51.018;13.742;2023-03-21T12:57:13;99617.47;;;12.85;66.28
75699;BME280;64313;51.018;13.742;2023-03-21T12:59:54;99616.47;;;12.86;65.85
75699;BME280;64313;51.018;13.742;2023-03-21T13:02:29;99615.81;;;12.90;66.33
75699;BME280;64313;51.018;13.742;2023-03-21T13:05:17;99613.72;;;12.92;67.17
75699;BME280;64313;51.018;13.742;2023-03-21T13:07:54;99614.31;;;12.94;66.63
75699;BME280;64313;51.018;13.742;2023-03-21T13:10:22;99607.69;;;12.97;66.06
75699;BME280;64313;51.018;13.742;2023-03-21T13:15:52;99597.75;;;13.04;65.90
75699;BME280;64313;51.018;13.742;2023-03-21T13:18:43;99596.03;;;13.10;66.26
75699;BME280;64313;51.018;13.742;2023-03-21T13:21:20;99600.16;;;13.12;65.95
75699;BME280;64313;51.018;13.742;2023-03-21T13:24:00;99600.56;;;13.16;65.74
75699;BME280;64313;51.018;13.742;2023-03-21T13:27:00;99594.53;;;13.20;66.58
75699;BME280;64313;51.018;13.742;2023-03-21T13:29:47;99588.72;;;13.24;66.50
75699;BME280;64313;51.018;13.742;2023-03-21T13:37:39;99581.03;;;13.34;65.91
75699;BME280;64313;51.018;13.742;2023-03-21T13:46:05;99568.38;;;13.41;65.40
75699;BME280;64313;51.018;13.742;2023-03-21T13:48:57;99571.66;;;13.43;65.34
75699;BME280;64313;51.018;13.742;2023-03-21T13:54:14;99570.38;;;13.46;65.70
75699;BME280;64313;51.018;13.742;2023-03-21T14:04:25;99559.34;;;13.54;65.35
75699;BME280;64313;51.018;13.742;2023-03-21T14:07:01;99553.16;;;13.53;65.50
75699;BME280;64313;51.018;13.742;2023-03-21T14:09:35;99554.59;;;13.56;65.10
75699;BME280;64313;51.018;13.742;2023-03-21T14:12:03;99547.09;;;13.58;65.45
75699;BME280;64313;51.018;13.742;2023-03-21T14:14:36;99548.53;;;13.60;64.70
75699;BME280;64313;51.018;13.742;2023-03-21T14:17:23;99548.31;;;13.62;64.57
75699;BME280;64313;51.018;13.742;2023-03-21T14:19:53;99546.44;;;13.62;64.85
75699;BME280;64313;51.018;13.742;2023-03-21T14:22:19;99543.53;;;13.64;65.51
75699;BME280;64313;51.018;13.742;2023-03-21T14:24:54;99538.16;;;13.64;65.34
75699;BME280;64313;51.018;13.742;2023-03-21T14:27:20;99529.88;;;13.66;65.36